CEB477 RPLL-RPVB
Flight info
| Callsign | CEB477 |
|---|---|
| Flight time | N/A |
| Altitude | 35000 |
| Route | VERDE2V VERDE W24 TAPER B472 LAMBO LAMBO3P |
| Aircraft | A20N/M-V/N |
Departure
| Time | N/A |
|---|---|
| Airport | Ninoy Aquino International Airport (RPLL) |
Arrival
| Time | 2026-04-21 12:36 |
|---|---|
| Airport | Bacolod-Silay International Airport (RPVB) |
| Time | Latitude | Longitude | Altitude | Speed | Heading |
|---|---|---|---|---|---|
| 2026-04-21 11:49 | 13.80718 | 121.04185 | 19930 ft | 374 kts | 182° |
| 2026-04-21 11:49 | 13.78984 | 121.04127 | 20223 ft | 376 kts | 182° |
| 2026-04-21 11:50 | 13.76336 | 121.04041 | 20673 ft | 378 kts | 182° |
| 2026-04-21 11:50 | 13.74586 | 121.03985 | 20979 ft | 379 kts | 182° |
| 2026-04-21 11:50 | 13.70173 | 121.03840 | 21730 ft | 381 kts | 183° |
| 2026-04-21 11:50 | 13.67483 | 121.03750 | 22166 ft | 383 kts | 183° |
| 2026-04-21 11:51 | 13.64813 | 121.03661 | 22605 ft | 385 kts | 183° |
| 2026-04-21 11:51 | 13.62111 | 121.03571 | 23020 ft | 388 kts | 183° |
| 2026-04-21 11:51 | 13.59382 | 121.03480 | 23432 ft | 391 kts | 183° |
| 2026-04-21 11:51 | 13.56615 | 121.03389 | 23868 ft | 394 kts | 183° |
| 2026-04-21 11:52 | 13.53839 | 121.03307 | 24299 ft | 397 kts | 180° |
| 2026-04-21 11:52 | 13.51087 | 121.03634 | 24681 ft | 402 kts | 167° |
| 2026-04-21 11:52 | 13.48460 | 121.04607 | 25084 ft | 406 kts | 154° |
| 2026-04-21 11:52 | 13.46036 | 121.06129 | 25503 ft | 410 kts | 147° |
| 2026-04-21 11:53 | 13.43688 | 121.07798 | 25913 ft | 412 kts | 146° |
| 2026-04-21 11:53 | 13.41306 | 121.09511 | 26308 ft | 415 kts | 146° |
| 2026-04-21 11:53 | 13.38926 | 121.11204 | 26700 ft | 418 kts | 147° |
| 2026-04-21 11:53 | 13.36523 | 121.12902 | 27084 ft | 420 kts | 147° |
| 2026-04-21 11:54 | 13.34077 | 121.14622 | 27475 ft | 422 kts | 147° |
| 2026-04-21 11:54 | 13.31662 | 121.16316 | 27853 ft | 424 kts | 147° |
| 2026-04-21 11:54 | 13.29216 | 121.18031 | 28221 ft | 426 kts | 147° |
| 2026-04-21 11:54 | 13.26763 | 121.19751 | 28577 ft | 428 kts | 147° |
| 2026-04-21 11:55 | 13.24277 | 121.21493 | 28912 ft | 430 kts | 147° |
| 2026-04-21 11:55 | 13.21792 | 121.23235 | 29219 ft | 432 kts | 147° |
| 2026-04-21 11:55 | 13.19296 | 121.24985 | 29512 ft | 435 kts | 147° |
| 2026-04-21 11:55 | 13.16781 | 121.26747 | 29802 ft | 437 kts | 147° |
| 2026-04-21 11:56 | 13.14290 | 121.28493 | 30082 ft | 439 kts | 147° |
| 2026-04-21 11:56 | 13.11749 | 121.30273 | 30353 ft | 441 kts | 147° |
| 2026-04-21 11:56 | 13.09206 | 121.32054 | 30635 ft | 443 kts | 147° |
| 2026-04-21 11:56 | 13.06670 | 121.33830 | 30992 ft | 442 kts | 147° |
| 2026-04-21 11:57 | 13.04112 | 121.35622 | 31359 ft | 441 kts | 147° |
| 2026-04-21 11:57 | 13.01578 | 121.37396 | 31696 ft | 441 kts | 147° |
| 2026-04-21 11:57 | 12.99053 | 121.39163 | 32021 ft | 441 kts | 147° |
| 2026-04-21 11:57 | 12.96494 | 121.40954 | 32348 ft | 441 kts | 147° |
| 2026-04-21 11:58 | 12.93970 | 121.42718 | 32682 ft | 440 kts | 147° |
| 2026-04-21 11:58 | 12.91427 | 121.44497 | 33067 ft | 439 kts | 147° |
| 2026-04-21 11:58 | 12.88938 | 121.46238 | 33436 ft | 438 kts | 147° |
| 2026-04-21 11:58 | 12.86354 | 121.48044 | 33755 ft | 438 kts | 147° |
| 2026-04-21 11:59 | 12.83803 | 121.49825 | 34017 ft | 440 kts | 147° |
| 2026-04-21 11:59 | 12.81267 | 121.51596 | 34277 ft | 441 kts | 147° |
| 2026-04-21 11:59 | 12.78734 | 121.53365 | 34540 ft | 441 kts | 147° |
| 2026-04-21 11:59 | 12.76186 | 121.55143 | 34789 ft | 442 kts | 147° |
| 2026-04-21 12:00 | 12.73626 | 121.56929 | 34906 ft | 444 kts | 147° |
| 2026-04-21 12:00 | 12.71057 | 121.58723 | 34908 ft | 444 kts | 147° |
| 2026-04-21 12:00 | 12.65947 | 121.62287 | 34909 ft | 444 kts | 147° |
| 2026-04-21 12:01 | 12.60807 | 121.65873 | 34908 ft | 443 kts | 148° |
| 2026-04-21 12:01 | 12.55709 | 121.69425 | 34905 ft | 443 kts | 148° |
| 2026-04-21 12:02 | 12.48030 | 121.74773 | 34895 ft | 442 kts | 148° |
| 2026-04-21 12:03 | 12.42924 | 121.78328 | 34895 ft | 442 kts | 148° |
| 2026-04-21 12:03 | 12.37772 | 121.81783 | 34900 ft | 441 kts | 152° |
| 2026-04-21 12:04 | 12.32319 | 121.84616 | 34902 ft | 438 kts | 159° |
| 2026-04-21 12:04 | 12.26711 | 121.87067 | 34904 ft | 438 kts | 159° |
| 2026-04-21 12:05 | 12.21073 | 121.89521 | 34901 ft | 438 kts | 159° |
| 2026-04-21 12:05 | 12.15431 | 121.91979 | 34899 ft | 438 kts | 159° |
| 2026-04-21 12:06 | 12.09843 | 121.94415 | 34898 ft | 437 kts | 159° |
| 2026-04-21 12:06 | 12.04219 | 121.96865 | 34898 ft | 437 kts | 159° |
| 2026-04-21 12:07 | 11.98577 | 121.99323 | 34897 ft | 438 kts | 159° |
| 2026-04-21 12:07 | 11.92957 | 122.01770 | 34896 ft | 438 kts | 159° |
| 2026-04-21 12:08 | 11.87279 | 122.04242 | 34899 ft | 437 kts | 159° |
| 2026-04-21 12:08 | 11.81647 | 122.06692 | 34895 ft | 437 kts | 159° |
| 2026-04-21 12:09 | 11.79467 | 122.07641 | 34896 ft | 437 kts | 159° |
| 2026-04-21 12:09 | 11.76670 | 122.08857 | 34734 ft | 435 kts | 159° |
| 2026-04-21 12:09 | 11.73850 | 122.10082 | 33863 ft | 442 kts | 159° |
| 2026-04-21 12:09 | 11.71002 | 122.11319 | 32692 ft | 451 kts | 159° |
| 2026-04-21 12:10 | 11.68092 | 122.12582 | 31722 ft | 457 kts | 159° |
| 2026-04-21 12:10 | 11.66108 | 122.13443 | 31152 ft | 458 kts | 158° |
| 2026-04-21 12:10 | 11.62196 | 122.15143 | 30115 ft | 458 kts | 158° |
| 2026-04-21 12:10 | 11.59249 | 122.16422 | 29434 ft | 454 kts | 158° |
| 2026-04-21 12:11 | 11.56368 | 122.17673 | 28923 ft | 448 kts | 158° |
| 2026-04-21 12:11 | 11.53502 | 122.18920 | 28388 ft | 443 kts | 158° |
| 2026-04-21 12:11 | 11.50682 | 122.20145 | 27826 ft | 439 kts | 158° |
| 2026-04-21 12:11 | 11.47892 | 122.21358 | 27237 ft | 435 kts | 158° |
| 2026-04-21 12:12 | 11.45090 | 122.22572 | 26658 ft | 432 kts | 158° |
| 2026-04-21 12:12 | 11.42332 | 122.23768 | 26083 ft | 429 kts | 158° |
| 2026-04-21 12:12 | 11.39592 | 122.24956 | 25521 ft | 425 kts | 157° |
| 2026-04-21 12:12 | 11.36852 | 122.26144 | 24949 ft | 422 kts | 157° |
| 2026-04-21 12:13 | 11.34170 | 122.27306 | 24404 ft | 418 kts | 157° |
| 2026-04-21 12:13 | 11.31501 | 122.28464 | 23839 ft | 415 kts | 157° |
| 2026-04-21 12:13 | 11.28848 | 122.29614 | 23294 ft | 412 kts | 157° |
| 2026-04-21 12:13 | 11.26183 | 122.30769 | 22751 ft | 409 kts | 157° |
| 2026-04-21 12:14 | 11.23584 | 122.31895 | 22285 ft | 404 kts | 157° |
| 2026-04-21 12:14 | 11.20978 | 122.33025 | 21912 ft | 397 kts | 157° |
| 2026-04-21 12:14 | 11.18448 | 122.34120 | 21556 ft | 390 kts | 157° |
| 2026-04-21 12:14 | 11.15960 | 122.35196 | 21216 ft | 384 kts | 158° |
| 2026-04-21 12:15 | 11.13415 | 122.35866 | 20901 ft | 374 kts | 178° |
| 2026-04-21 12:15 | 11.11703 | 122.35704 | 20697 ft | 369 kts | 195° |
| 2026-04-21 12:15 | 11.09420 | 122.34542 | 20387 ft | 361 kts | 220° |
| 2026-04-21 12:15 | 11.07479 | 122.31858 | 19998 ft | 353 kts | 248° |
| 2026-04-21 12:16 | 11.07033 | 122.30277 | 19807 ft | 349 kts | 261° |
| 2026-04-21 12:16 | 11.07257 | 122.27043 | 19431 ft | 343 kts | 288° |
| 2026-04-21 12:16 | 11.08347 | 122.24912 | 19148 ft | 338 kts | 308° |
| 2026-04-21 12:16 | 11.10071 | 122.23307 | 18859 ft | 334 kts | 328° |
| 2026-04-21 12:17 | 11.12153 | 122.22292 | 18585 ft | 329 kts | 336° |
| 2026-04-21 12:17 | 11.14246 | 122.21421 | 18318 ft | 324 kts | 337° |
| 2026-04-21 12:17 | 11.16335 | 122.20540 | 13178 ft | 315 kts | 335° |
| 2026-04-21 12:17 | 11.18341 | 122.19807 | 12964 ft | 308 kts | 350° |
| 2026-04-21 12:18 | 11.20497 | 122.19849 | 12945 ft | 292 kts | 12° |
| 2026-04-21 12:18 | 11.22366 | 122.20551 | 12939 ft | 277 kts | 30° |
| 2026-04-21 12:18 | 11.23916 | 122.21748 | 12943 ft | 275 kts | 47° |
| 2026-04-21 12:18 | 11.25052 | 122.23327 | 12948 ft | 274 kts | 64° |
| 2026-04-21 12:19 | 11.25694 | 122.25135 | 12953 ft | 273 kts | 80° |
| 2026-04-21 12:19 | 11.25809 | 122.27072 | 12946 ft | 272 kts | 97° |
| 2026-04-21 12:19 | 11.25388 | 122.28941 | 12937 ft | 270 kts | 114° |
| 2026-04-21 12:19 | 11.24467 | 122.30612 | 12931 ft | 269 kts | 130° |
| 2026-04-21 12:20 | 11.23138 | 122.31941 | 12928 ft | 267 kts | 146° |
| 2026-04-21 12:20 | 11.21514 | 122.32855 | 12932 ft | 266 kts | 157° |
| 2026-04-21 12:20 | 11.19802 | 122.33588 | 12928 ft | 266 kts | 158° |
| 2026-04-21 12:20 | 11.18073 | 122.34311 | 12925 ft | 266 kts | 158° |
| 2026-04-21 12:21 | 11.16357 | 122.35041 | 12923 ft | 267 kts | 158° |
| 2026-04-21 12:21 | 11.14619 | 122.35854 | 12752 ft | 284 kts | 153° |
| 2026-04-21 12:21 | 11.12811 | 122.36874 | 12524 ft | 302 kts | 149° |
| 2026-04-21 12:21 | 11.11039 | 122.38068 | 12289 ft | 304 kts | 145° |
| 2026-04-21 12:22 | 11.09290 | 122.39271 | 12052 ft | 303 kts | 148° |
| 2026-04-21 12:22 | 11.07478 | 122.40405 | 11815 ft | 303 kts | 149° |
| 2026-04-21 12:22 | 11.05680 | 122.41515 | 11581 ft | 301 kts | 149° |
| 2026-04-21 12:22 | 11.03883 | 122.42619 | 11347 ft | 301 kts | 149° |
| 2026-04-21 12:23 | 11.02071 | 122.43728 | 11110 ft | 299 kts | 149° |
| 2026-04-21 12:23 | 11.00289 | 122.44817 | 10872 ft | 298 kts | 149° |
| 2026-04-21 12:23 | 10.98513 | 122.45901 | 10632 ft | 296 kts | 148° |
| 2026-04-21 12:23 | 10.96736 | 122.46986 | 10394 ft | 295 kts | 148° |
| 2026-04-21 12:24 | 10.94966 | 122.48067 | 10154 ft | 294 kts | 148° |
| 2026-04-21 12:24 | 10.93213 | 122.49139 | 9916 ft | 293 kts | 148° |
| 2026-04-21 12:24 | 10.91460 | 122.50210 | 9744 ft | 291 kts | 148° |
| 2026-04-21 12:24 | 10.89706 | 122.51281 | 9621 ft | 290 kts | 148° |
| 2026-04-21 12:25 | 10.88053 | 122.52454 | 9500 ft | 289 kts | 138° |
| 2026-04-21 12:25 | 10.86644 | 122.53935 | 9385 ft | 288 kts | 128° |
| 2026-04-21 12:25 | 10.85410 | 122.55551 | 9253 ft | 287 kts | 126° |
| 2026-04-21 12:25 | 10.84210 | 122.57175 | 9098 ft | 285 kts | 126° |
| 2026-04-21 12:26 | 10.83009 | 122.58801 | 8924 ft | 284 kts | 126° |
| 2026-04-21 12:26 | 10.81813 | 122.60413 | 8710 ft | 283 kts | 126° |
| 2026-04-21 12:26 | 10.80624 | 122.62009 | 8426 ft | 282 kts | 126° |
| 2026-04-21 12:26 | 10.79434 | 122.63604 | 8106 ft | 281 kts | 126° |
| 2026-04-21 12:27 | 10.78251 | 122.65186 | 7784 ft | 279 kts | 126° |
| 2026-04-21 12:27 | 10.77077 | 122.66756 | 7454 ft | 277 kts | 126° |
| 2026-04-21 12:27 | 10.75905 | 122.68322 | 7123 ft | 276 kts | 125° |
| 2026-04-21 12:27 | 10.74744 | 122.69872 | 6798 ft | 274 kts | 125° |
| 2026-04-21 12:28 | 10.73602 | 122.71397 | 6482 ft | 272 kts | 125° |
| 2026-04-21 12:28 | 10.72446 | 122.72941 | 6158 ft | 270 kts | 125° |
| 2026-04-21 12:28 | 10.71315 | 122.74451 | 5846 ft | 267 kts | 125° |
| 2026-04-21 12:28 | 10.70195 | 122.75948 | 5527 ft | 266 kts | 124° |
| 2026-04-21 12:29 | 10.69063 | 122.77459 | 5205 ft | 264 kts | 124° |
| 2026-04-21 12:29 | 10.67959 | 122.78931 | 4888 ft | 262 kts | 124° |
| 2026-04-21 12:29 | 10.66840 | 122.80424 | 4568 ft | 261 kts | 124° |
| 2026-04-21 12:29 | 10.65810 | 122.81928 | 4256 ft | 258 kts | 119° |
| 2026-04-21 12:30 | 10.65201 | 122.82963 | 4049 ft | 256 kts | 117° |
| 2026-04-21 12:30 | 10.64011 | 122.85053 | 3628 ft | 254 kts | 117° |
| 2026-04-21 12:30 | 10.63124 | 122.86614 | 3314 ft | 253 kts | 117° |
| 2026-04-21 12:30 | 10.62243 | 122.88165 | 3063 ft | 248 kts | 117° |
| 2026-04-21 12:31 | 10.61403 | 122.89638 | 3031 ft | 233 kts | 115° |
| 2026-04-21 12:31 | 10.60973 | 122.91142 | 3014 ft | 212 kts | 85° |
| 2026-04-21 12:31 | 10.61431 | 122.92482 | 3014 ft | 197 kts | 51° |
| 2026-04-21 12:31 | 10.62517 | 122.93304 | 2999 ft | 199 kts | 31° |
| 2026-04-21 12:32 | 10.63780 | 122.93918 | 2813 ft | 198 kts | 29° |
| 2026-04-21 12:32 | 10.64981 | 122.94525 | 2653 ft | 188 kts | 31° |
| 2026-04-21 12:32 | 10.66124 | 122.95161 | 2384 ft | 183 kts | 33° |
| 2026-04-21 12:32 | 10.67200 | 122.95785 | 2119 ft | 171 kts | 33° |
| 2026-04-21 12:33 | 10.68196 | 122.96371 | 1879 ft | 159 kts | 33° |
| 2026-04-21 12:33 | 10.69120 | 122.96914 | 1686 ft | 146 kts | 33° |
| 2026-04-21 12:33 | 10.70001 | 122.97431 | 1503 ft | 143 kts | 33° |
| 2026-04-21 12:33 | 10.70869 | 122.97940 | 1335 ft | 144 kts | 33° |
| 2026-04-21 12:34 | 10.71740 | 122.98450 | 1159 ft | 142 kts | 33° |
| 2026-04-21 12:34 | 10.72600 | 122.98953 | 981 ft | 142 kts | 32° |
| 2026-04-21 12:34 | 10.73443 | 122.99445 | 795 ft | 134 kts | 32° |
| 2026-04-21 12:34 | 10.74250 | 122.99915 | 619 ft | 131 kts | 32° |
| 2026-04-21 12:35 | 10.75041 | 123.00378 | 454 ft | 130 kts | 32° |
| 2026-04-21 12:35 | 10.75825 | 123.00833 | 279 ft | 129 kts | 32° |
| 2026-04-21 12:35 | 10.76605 | 123.01297 | 122 ft | 128 kts | 31° |
| 2026-04-21 12:35 | 10.77365 | 123.01739 | 37 ft | 118 kts | 30° |
| 2026-04-21 12:36 | 10.77818 | 123.02004 | 37 ft | 38 kts | 28° |
| 2026-04-21 12:36 | 10.77935 | 123.02065 | 37 ft | 8 kts | 18° |
| 2026-04-21 12:36 | 10.77963 | 123.02085 | 37 ft | 1 kts | 121° |
| 2026-04-21 12:36 | 10.77931 | 123.02075 | 37 ft | 10 kts | 211° |
| 2026-04-21 12:37 | 10.77806 | 123.01997 | 37 ft | 21 kts | 209° |
| 2026-04-21 12:37 | 10.77695 | 123.01928 | 37 ft | 16 kts | 227° |
| 2026-04-21 12:37 | 10.77693 | 123.01853 | 36 ft | 12 kts | 296° |
| 2026-04-21 12:37 | 10.77737 | 123.01772 | 36 ft | 13 kts | 296° |
| 2026-04-21 12:38 | 10.77717 | 123.01686 | 36 ft | 14 kts | 218° |
| 2026-04-21 12:38 | 10.77655 | 123.01649 | 36 ft | 7 kts | 210° |
| 2026-04-21 12:38 | 10.77650 | 123.01628 | 36 ft | 4 kts | 282° |
| 2026-04-21 12:38 | 10.77663 | 123.01598 | 36 ft | 5 kts | 300° |
| 2026-04-21 12:39 | 10.77669 | 123.01586 | 36 ft | 1 kts | 300° |
| 2026-04-21 12:39 | 10.77674 | 123.01578 | 36 ft | 0 kts | 300° |
| 2026-04-21 12:46 | 10.77674 | 123.01579 | 36 ft | 0 kts | 299° |